Terminal Aerodrome Forecast
Issued by NWS

Home | Current Version | Previous Version | Text Only | Print | Product List | Glossary On
Versions: 1 2 3 4 5 6 7 8 9 10 11 12 13 14 15
000
FTUS42 KGSP 031742 CCA
TAFHKY
TAF COR
KHKY 031742Z 0318/0418 VRB02KT P6SM BKN150 BKN200
     FM040300 VRB02KT P6SM OVC090 PROB30 0406/0410 4SM -RA OVC040
     FM041000 00000KT P6SM OVC045 PROB30 0410/0414 3SM -RA OVC015
     FM041400 VRB02KT 2SM -RA BR OVC020
     FM041700 13003KT 1SM -SHRA BR OVC020=

USA.gov is the U.S. government's official web portal to all federal, state and local government web resources and services.